createdAt,value
2019-04-05T00:00:13.854Z,99623.95
2019-04-05T00:02:43.319Z,99634.58
2019-04-05T00:05:13.391Z,99633.45
2019-04-05T00:07:42.859Z,99629.59
2019-04-05T00:10:12.756Z,99635.22
2019-04-05T00:12:42.283Z,99630.55
2019-04-05T00:15:15.776Z,99631.27
2019-04-05T00:17:43.243Z,99628.45
2019-04-05T00:20:12.793Z,99628.34
2019-04-05T00:22:42.240Z,99624.73
2019-04-05T00:25:11.789Z,99633.17
2019-04-05T00:27:41.238Z,99629.06
2019-04-05T00:30:11.097Z,99629.78
2019-04-05T00:32:40.569Z,99622.05
2019-04-05T00:35:10.175Z,99611.35
2019-04-05T00:37:39.655Z,99621.09
2019-04-05T00:40:10.572Z,99624.53
2019-04-05T00:42:39.992Z,99625.25
2019-04-05T00:45:09.993Z,99614.78
2019-04-05T00:47:39.475Z,99611.08
2019-04-05T00:50:09.529Z,99615.08
2019-04-05T00:52:39.159Z,99610.31
2019-04-05T00:55:09.660Z,99598.82
2019-04-05T00:57:39.210Z,99602.27
2019-04-05T01:00:09.082Z,99596.80
2019-04-05T01:02:38.632Z,99599.77
2019-04-05T01:05:08.206Z,99607.08
2019-04-05T01:07:37.799Z,99603.22
2019-04-05T01:10:09.564Z,99592.50
2019-04-05T01:12:41.395Z,99606.66
2019-04-05T01:15:12.635Z,99612.02
2019-04-05T01:17:42.734Z,99612.49
2019-04-05T01:20:14.442Z,99614.68
2019-04-05T01:22:45.484Z,99628.28
2019-04-05T01:25:15.113Z,99626.56
2019-04-05T01:27:44.791Z,99632.52
2019-04-05T01:30:17.480Z,99631.62
2019-04-05T01:32:48.020Z,99629.94
2019-04-05T01:35:17.619Z,99636.91
2019-04-05T01:37:47.661Z,99641.25
2019-04-05T01:40:17.443Z,99641.48
2019-04-05T01:42:47.676Z,99647.77
2019-04-05T01:45:17.227Z,99653.48
2019-04-05T01:47:46.682Z,99647.42
2019-04-05T01:50:16.298Z,99648.25
2019-04-05T01:52:46.365Z,99653.14
2019-04-05T01:55:16.108Z,99652.23
2019-04-05T01:57:45.610Z,99650.56
2019-04-05T02:00:15.762Z,99645.08
2019-04-05T02:02:45.614Z,99645.88
2019-04-05T02:05:15.560Z,99640.63
2019-04-05T02:07:45.158Z,99637.89
2019-04-05T02:10:16.870Z,99632.66
2019-04-05T02:12:46.470Z,99636.77
2019-04-05T02:15:28.648Z,99641.11
2019-04-05T02:17:59.200Z,99635.08
2019-04-05T02:20:28.839Z,99623.78
2019-04-05T02:22:58.419Z,99619.91
2019-04-05T02:25:28.034Z,99621.05
2019-04-05T02:27:57.553Z,99621.28
2019-04-05T02:30:27.582Z,99618.78
2019-04-05T02:32:57.190Z,99612.17
2019-04-05T02:35:27.225Z,99612.44
2019-04-05T02:37:56.861Z,99616.78
2019-04-05T02:40:27.720Z,99618.14
2019-04-05T02:43:00.287Z,99615.64
2019-04-05T02:45:32.831Z,99615.88
2019-04-05T02:48:05.435Z,99617.02
2019-04-05T02:50:38.213Z,99620.88
2019-04-05T02:53:10.222Z,99624.99
2019-04-05T02:55:41.916Z,99620.65
2019-04-05T02:58:13.512Z,99627.50
2019-04-05T03:00:44.692Z,99632.97
2019-04-05T03:03:15.174Z,99628.36
2019-04-05T03:05:47.112Z,99626.44
2019-04-05T03:08:17.857Z,99628.36
2019-04-05T03:11:03.595Z,99631.09
2019-04-05T03:13:36.575Z,99636.58
2019-04-05T03:16:10.769Z,99636.34
2019-04-05T03:18:44.994Z,99637.47
2019-04-05T03:21:16.818Z,99641.58
2019-04-05T03:23:47.313Z,99642.71
2019-04-05T03:26:19.498Z,99638.84
2019-04-05T03:28:52.805Z,99651.16
2019-04-05T03:31:24.996Z,99643.77
2019-04-05T03:33:54.100Z,99644.08
2019-04-05T03:36:24.154Z,99641.11
2019-04-05T03:38:54.166Z,99643.84
2019-04-05T03:41:24.374Z,99644.42
2019-04-05T03:43:54.012Z,99636.77
2019-04-05T03:46:23.535Z,99633.79
2019-04-05T03:48:53.050Z,99633.00
2019-04-05T03:51:22.593Z,99636.88
2019-04-05T03:53:52.281Z,99639.27
2019-04-05T03:56:21.889Z,99635.16
2019-04-05T03:58:51.617Z,99638.79
2019-04-05T04:01:21.158Z,99648.38
2019-04-05T04:03:50.881Z,99649.27
2019-04-05T04:06:20.397Z,99656.69
2019-04-05T04:08:49.917Z,99663.84
2019-04-05T04:11:19.528Z,99663.61
2019-04-05T04:13:49.718Z,99668.84
2019-04-05T04:16:19.704Z,99671.34
2019-04-05T04:18:50.146Z,99667.25
2019-04-05T04:21:31.783Z,99672.95
2019-04-05T04:24:01.604Z,99679.01
2019-04-05T04:26:31.898Z,99679.80
2019-04-05T04:29:01.454Z,99674.91
2019-04-05T04:31:31.439Z,99681.98
2019-04-05T04:34:01.458Z,99680.92
2019-04-05T04:36:31.294Z,99679.56
2019-04-05T04:39:01.055Z,99686.98
2019-04-05T04:41:32.138Z,99697.34
2019-04-05T04:44:02.035Z,99691.88
2019-04-05T04:46:32.229Z,99695.98
2019-04-05T04:49:02.409Z,99694.38
2019-04-05T04:51:32.725Z,99700.33
2019-04-05T04:54:02.412Z,99700.66
2019-04-05T04:56:32.318Z,99699.84
2019-04-05T04:59:02.108Z,99688.66
2019-04-05T05:01:31.730Z,99690.03
2019-04-05T05:04:02.327Z,99696.64
2019-04-05T05:06:32.037Z,99702.11
2019-04-05T05:09:01.959Z,99703.24
2019-04-05T05:11:31.658Z,99705.74
2019-04-05T05:14:01.667Z,99699.48
2019-04-05T05:16:31.293Z,99702.53
2019-04-05T05:19:01.428Z,99700.03
2019-04-05T05:21:31.212Z,99706.63
2019-04-05T05:24:01.095Z,99707.77
2019-04-05T05:26:31.101Z,99703.66
2019-04-05T05:29:00.894Z,99708.58
2019-04-05T05:31:30.644Z,99709.13
2019-04-05T05:34:00.622Z,99706.16
2019-04-05T05:36:30.184Z,99715.73
2019-04-05T05:38:59.861Z,99708.11
2019-04-05T05:41:29.297Z,99705.92
2019-04-05T05:43:58.838Z,99713.89
2019-04-05T05:46:28.452Z,99707.70
2019-04-05T05:48:57.979Z,99708.49
2019-04-05T05:51:27.779Z,99714.20
2019-04-05T05:53:57.300Z,99718.81
2019-04-05T05:56:26.862Z,99721.20
2019-04-05T05:58:59.428Z,99718.95
2019-04-05T06:01:27.963Z,99722.39
2019-04-05T06:03:57.514Z,99727.45
2019-04-05T06:06:27.132Z,99718.83
2019-04-05T06:08:56.583Z,99716.25
2019-04-05T06:11:26.065Z,99725.17
2019-04-05T06:13:55.517Z,99723.38
2019-04-05T06:16:46.612Z,99722.96
2019-04-05T06:19:15.603Z,99724.14
2019-04-05T06:21:45.050Z,99730.49
2019-04-05T06:24:14.531Z,99733.05
2019-04-05T06:26:43.981Z,99727.14
2019-04-05T06:29:13.468Z,99731.53
2019-04-05T06:31:43.046Z,99731.50
2019-04-05T06:34:12.495Z,99724.11
2019-04-05T06:36:42.162Z,99726.00
2019-04-05T06:39:11.740Z,99726.30
2019-04-05T06:41:41.202Z,99730.92
2019-04-05T06:44:10.693Z,99725.94
2019-04-05T06:46:40.144Z,99727.03
2019-04-05T06:49:09.622Z,99722.98
2019-04-05T06:51:39.110Z,99717.41
2019-04-05T06:54:08.557Z,99711.64
2019-04-05T06:56:38.184Z,99708.02
2019-04-05T06:59:07.632Z,99707.13
2019-04-05T07:01:37.232Z,99706.83
2019-04-05T07:04:06.892Z,99709.47
2019-04-05T07:06:36.345Z,99717.40
2019-04-05T07:09:07.474Z,99709.41
2019-04-05T07:11:36.968Z,99708.29
2019-04-05T07:14:06.651Z,99720.33
2019-04-05T07:16:36.258Z,99711.78
2019-04-05T07:19:05.889Z,99711.44
2019-04-05T07:21:35.360Z,99710.89
2019-04-05T07:24:04.964Z,99715.47
2019-04-05T07:26:34.437Z,99709.07
2019-04-05T07:29:03.974Z,99716.63
2019-04-05T07:31:33.499Z,99712.41
2019-04-05T07:34:02.996Z,99717.44
2019-04-05T07:36:32.463Z,99718.71
2019-04-05T07:39:01.917Z,99714.34
2019-04-05T07:41:31.900Z,99712.28
2019-04-05T07:44:01.520Z,99713.20
2019-04-05T07:46:31.085Z,99711.94
2019-04-05T07:49:00.551Z,99718.47
2019-04-05T07:51:30.042Z,99720.61
2019-04-05T07:53:59.501Z,99722.20
2019-04-05T07:56:28.985Z,99723.22
2019-04-05T07:58:58.524Z,99726.17
2019-04-05T08:01:28.154Z,99728.80
2019-04-05T08:03:58.194Z,99726.69
2019-04-05T08:06:28.625Z,99729.05
2019-04-05T08:09:05.938Z,99732.26
2019-04-05T08:11:36.234Z,99733.02
2019-04-05T08:14:06.188Z,99737.56
2019-04-05T08:16:35.740Z,99735.25
2019-04-05T08:19:05.346Z,99740.02
2019-04-05T08:21:34.809Z,99738.23
2019-04-05T08:24:04.514Z,99742.44
2019-04-05T08:26:34.654Z,99735.39
2019-04-05T08:29:04.292Z,99737.73
2019-04-05T08:31:33.786Z,99733.24
2019-04-05T08:34:03.275Z,99733.08
2019-04-05T08:36:32.898Z,99738.17
2019-04-05T08:39:02.412Z,99726.08
2019-04-05T08:41:31.902Z,99731.89
2019-04-05T08:44:01.400Z,99739.10
2019-04-05T08:46:30.940Z,99735.03
2019-04-05T08:49:10.129Z,99738.70
2019-04-05T08:51:31.644Z,99737.98
2019-04-05T08:54:01.068Z,99740.03
2019-04-05T08:56:30.654Z,99738.88
2019-04-05T08:59:00.211Z,99732.64
2019-04-05T09:01:29.723Z,99738.38
2019-04-05T09:03:59.174Z,99740.19
2019-04-05T09:06:28.665Z,99741.30
2019-04-05T09:08:58.127Z,99737.66
2019-04-05T09:11:27.620Z,99734.05
2019-04-05T09:13:57.108Z,99739.89
2019-04-05T09:16:26.644Z,99736.63
2019-04-05T09:18:56.209Z,99743.80
2019-04-05T09:21:25.675Z,99735.02
2019-04-05T09:23:55.163Z,99732.70
2019-04-05T09:26:24.727Z,99731.76
2019-04-05T09:28:54.218Z,99734.52
2019-04-05T09:31:23.781Z,99727.84
2019-04-05T09:33:53.277Z,99740.03
2019-04-05T09:36:22.815Z,99730.66
2019-04-05T09:38:52.332Z,99724.70
2019-04-05T09:41:21.791Z,99721.38
2019-04-05T09:43:51.249Z,99725.96
2019-04-05T09:46:20.796Z,99714.98
2019-04-05T09:48:50.408Z,99716.76
2019-04-05T09:51:19.900Z,99705.36
2019-04-05T09:53:49.404Z,99711.07
2019-04-05T09:56:18.855Z,99710.30
2019-04-05T09:58:48.427Z,99718.13
2019-04-05T10:01:17.916Z,99715.74
2019-04-05T10:03:47.661Z,99716.83
2019-04-05T10:06:17.138Z,99720.92
2019-04-05T10:08:46.652Z,99720.41
2019-04-05T10:11:16.104Z,99719.88
2019-04-05T10:13:45.666Z,99715.66
2019-04-05T10:16:15.195Z,99711.84
2019-04-05T10:18:44.662Z,99705.28
2019-04-05T10:21:14.301Z,99699.13
2019-04-05T10:23:43.769Z,99705.42
2019-04-05T10:26:13.314Z,99706.20
2019-04-05T10:28:42.787Z,99705.37
2019-04-05T10:31:12.403Z,99700.38
2019-04-05T10:33:41.898Z,99698.88
2019-04-05T10:36:11.361Z,99692.07
2019-04-05T10:38:40.881Z,99699.48
2019-04-05T10:41:10.397Z,99695.36
2019-04-05T10:43:39.958Z,99696.21
2019-04-05T10:46:10.006Z,99698.41
2019-04-05T10:48:39.536Z,99694.61
2019-04-05T10:51:09.011Z,99696.00
2019-04-05T10:53:38.543Z,99693.23
2019-04-05T10:56:08.172Z,99696.00
2019-04-05T10:58:37.731Z,99701.39
2019-04-05T11:01:07.412Z,99702.17
2019-04-05T11:03:36.894Z,99699.05
2019-04-05T11:06:06.486Z,99700.43
2019-04-05T11:08:36.045Z,99699.41
2019-04-05T11:11:05.590Z,99695.79
2019-04-05T11:13:35.087Z,99697.56
2019-04-05T11:16:04.805Z,99700.86
2019-04-05T11:18:34.373Z,99691.71
2019-04-05T11:21:03.939Z,99691.44
2019-04-05T11:23:33.419Z,99697.92
2019-04-05T11:26:02.930Z,99689.55
2019-04-05T11:28:32.484Z,99691.11
2019-04-05T11:31:01.939Z,99700.16
2019-04-05T11:33:31.508Z,99711.75
2019-04-05T11:36:01.050Z,99704.20
2019-04-05T11:38:31.278Z,99708.13
2019-04-05T11:41:01.209Z,99704.41
2019-04-05T11:43:33.579Z,99703.24
2019-04-05T11:46:03.319Z,99699.09
2019-04-05T11:48:33.219Z,99696.75
2019-04-05T11:51:02.778Z,99705.05
2019-04-05T11:53:32.247Z,99697.70
2019-04-05T11:56:13.930Z,99703.03
2019-04-05T11:58:33.090Z,99702.81
2019-04-05T12:01:06.659Z,99698.66
2019-04-05T12:03:36.307Z,99698.66
2019-04-05T12:06:05.790Z,99697.64
2019-04-05T12:08:35.262Z,99700.41
2019-04-05T12:11:05.022Z,99703.55
2019-04-05T12:13:34.520Z,99693.02
2019-04-05T12:16:06.118Z,99688.37
2019-04-05T12:18:35.529Z,99688.69
2019-04-05T12:21:05.918Z,99689.78
2019-04-05T12:23:35.421Z,99687.77
2019-04-05T12:26:05.090Z,99684.22
2019-04-05T12:28:34.601Z,99681.80
2019-04-05T12:31:04.207Z,99669.89
2019-04-05T12:33:33.761Z,99673.39
2019-04-05T12:36:03.822Z,99667.61
2019-04-05T12:38:34.050Z,99671.81
2019-04-05T12:41:04.723Z,99672.30
2019-04-05T12:43:35.327Z,99672.39
2019-04-05T12:46:05.368Z,99669.94
2019-04-05T12:48:34.937Z,99663.33
2019-04-05T12:51:05.623Z,99664.42
2019-04-05T12:53:35.470Z,99666.67
2019-04-05T12:56:05.745Z,99665.02
2019-04-05T12:58:35.246Z,99670.81
2019-04-05T13:01:04.826Z,99669.36
2019-04-05T13:03:34.585Z,99664.35
2019-04-05T13:06:04.112Z,99659.34
2019-04-05T13:08:33.604Z,99659.48
2019-04-05T13:11:03.105Z,99657.66
2019-04-05T13:13:32.833Z,99654.12
2019-04-05T13:16:02.345Z,99648.38
2019-04-05T13:18:31.900Z,99649.55
2019-04-05T13:21:09.380Z,99654.84
2019-04-05T13:23:33.767Z,99653.47
2019-04-05T13:26:04.200Z,99651.88
2019-04-05T13:28:33.744Z,99644.53
2019-04-05T13:31:03.227Z,99644.53
2019-04-05T13:33:32.703Z,99642.34
2019-04-05T13:36:02.196Z,99633.28
2019-04-05T13:38:31.685Z,99630.13
2019-04-05T13:41:02.062Z,99630.13
2019-04-05T13:43:32.618Z,99637.63
2019-04-05T13:46:02.312Z,99624.39
2019-04-05T13:48:31.807Z,99616.71
2019-04-05T13:51:01.385Z,99612.78
2019-04-05T13:53:30.857Z,99613.64
2019-04-05T13:56:00.996Z,99614.51
2019-04-05T13:58:30.475Z,99619.90
2019-04-05T14:00:59.984Z,99614.20
2019-04-05T14:03:29.459Z,99614.20
2019-04-05T14:05:59.003Z,99606.73
2019-04-05T14:08:28.487Z,99605.49
2019-04-05T14:10:58.002Z,99603.47
2019-04-05T14:13:27.477Z,99609.72
2019-04-05T14:15:57.050Z,99601.57
2019-04-05T14:18:26.548Z,99603.91
2019-04-05T14:20:56.009Z,99602.69
2019-04-05T14:23:26.487Z,99604.06
2019-04-05T14:25:59.519Z,99606.40
2019-04-05T14:28:27.287Z,99598.69
2019-04-05T14:30:56.841Z,99599.06
2019-04-05T14:33:26.310Z,99597.69
2019-04-05T14:35:55.815Z,99599.41
2019-04-05T14:38:25.294Z,99598.63
2019-04-05T14:40:54.839Z,99602.55
2019-04-05T14:43:24.306Z,99588.54
2019-04-05T14:45:53.862Z,99590.66
2019-04-05T14:48:23.446Z,99584.48
2019-04-05T14:50:52.992Z,99578.96
2019-04-05T14:53:22.541Z,99573.44
2019-04-05T14:55:52.075Z,99573.44
2019-04-05T14:58:21.559Z,99569.52
2019-04-05T15:00:51.074Z,99570.30
2019-04-05T15:03:20.589Z,99574.44
2019-04-05T15:05:50.271Z,99574.22
2019-04-05T15:08:20.721Z,99570.25
2019-04-05T15:10:51.435Z,99571.98
2019-04-05T15:13:21.105Z,99571.17
2019-04-05T15:15:50.658Z,99573.49
2019-04-05T15:18:24.219Z,99574.44
2019-04-05T15:20:51.512Z,99572.84
2019-04-05T15:23:20.984Z,99567.28
2019-04-05T15:25:50.580Z,99568.79
2019-04-05T15:28:20.142Z,99576.07
2019-04-05T15:30:49.827Z,99577.58
2019-04-05T15:33:19.496Z,99581.28
2019-04-05T15:35:49.058Z,99583.61
2019-04-05T15:38:18.580Z,99587.31
2019-04-05T15:40:48.145Z,99589.42
2019-04-05T15:43:18.506Z,99588.77
2019-04-05T15:45:48.023Z,99588.69
2019-04-05T15:48:17.535Z,99589.84
2019-04-05T15:50:47.082Z,99583.67
2019-04-05T15:53:16.566Z,99586.59
2019-04-05T15:55:46.108Z,99583.19
2019-04-05T15:58:15.676Z,99581.59
2019-04-05T16:00:45.833Z,99578.39
2019-04-05T16:03:16.362Z,99583.26
2019-04-05T16:05:46.671Z,99582.82
2019-04-05T16:08:18.525Z,99583.33
2019-04-05T16:10:48.618Z,99576.91
2019-04-05T16:13:18.113Z,99584.53
2019-04-05T16:15:47.997Z,99591.58
2019-04-05T16:18:17.599Z,99587.79
2019-04-05T16:20:47.118Z,99581.63
2019-04-05T16:23:16.642Z,99591.27
2019-04-05T16:25:46.230Z,99588.30
2019-04-05T16:28:15.711Z,99594.53
2019-04-05T16:30:45.285Z,99587.20
2019-04-05T16:33:14.770Z,99597.79
2019-04-05T16:35:44.410Z,99597.35
2019-04-05T16:38:13.958Z,99603.02
2019-04-05T16:40:43.598Z,99604.08
2019-04-05T16:43:13.205Z,99608.50
2019-04-05T16:45:42.789Z,99607.38
2019-04-05T16:48:12.274Z,99605.11
2019-04-05T16:50:42.427Z,99604.67
2019-04-05T16:53:12.017Z,99602.03
2019-04-05T16:55:41.562Z,99604.57
2019-04-05T16:58:11.308Z,99596.69
2019-04-05T17:00:40.804Z,99605.73
2019-04-05T17:03:10.350Z,99602.19
2019-04-05T17:05:39.840Z,99604.02
2019-04-05T17:08:09.383Z,99607.92
2019-04-05T17:10:38.883Z,99606.55
2019-04-05T17:13:08.338Z,99602.03
2019-04-05T17:15:37.882Z,99601.48
2019-04-05T17:18:07.548Z,99608.14
2019-04-05T17:20:37.100Z,99603.41
2019-04-05T17:23:06.662Z,99606.17
2019-04-05T17:25:36.128Z,99606.55
2019-04-05T17:28:05.715Z,99610.45
2019-04-05T17:30:36.316Z,99607.48
2019-04-05T17:33:06.018Z,99607.60
2019-04-05T17:35:35.525Z,99609.14
2019-04-05T17:38:05.146Z,99605.13
2019-04-05T17:40:34.646Z,99609.38
2019-04-05T17:43:04.214Z,99607.34
2019-04-05T17:45:33.744Z,99606.89
2019-04-05T17:48:03.254Z,99610.02
2019-04-05T17:50:34.518Z,99610.36
2019-04-05T17:53:12.062Z,99605.79
2019-04-05T17:55:35.806Z,99610.86
2019-04-05T17:58:06.956Z,99610.64
2019-04-05T18:00:36.919Z,99611.34
2019-04-05T18:03:06.558Z,99612.28
2019-04-05T18:05:36.199Z,99615.19
2019-04-05T18:08:05.739Z,99614.15
2019-04-05T18:10:35.301Z,99619.44
2019-04-05T18:13:04.927Z,99618.55
2019-04-05T18:15:34.523Z,99614.98
2019-04-05T18:18:04.074Z,99620.86
2019-04-05T18:20:33.645Z,99619.83
2019-04-05T18:23:03.227Z,99624.10
2019-04-05T18:25:32.914Z,99625.03
2019-04-05T18:28:02.627Z,99623.44
2019-04-05T18:30:32.129Z,99626.19
2019-04-05T18:33:01.734Z,99628.50
2019-04-05T18:35:31.261Z,99631.25
2019-04-05T18:38:00.725Z,99635.37
2019-04-05T18:40:39.518Z,99630.21
2019-04-05T18:43:01.572Z,99635.72
2019-04-05T18:45:33.488Z,99626.67
2019-04-05T18:48:02.459Z,99629.20
2019-04-05T18:50:32.043Z,99631.52
2019-04-05T18:53:01.582Z,99630.14
2019-04-05T18:55:31.186Z,99634.27
2019-04-05T18:58:00.696Z,99634.05
2019-04-05T19:00:30.263Z,99640.92
2019-04-05T19:02:59.895Z,99637.95
2019-04-05T19:05:29.450Z,99642.08
2019-04-05T19:07:59.003Z,99640.48
2019-04-05T19:10:36.852Z,99640.48
2019-04-05T19:12:59.935Z,99643.23
2019-04-05T19:15:29.381Z,99634.97
2019-04-05T19:17:58.901Z,99636.91
2019-04-05T19:20:28.363Z,99640.48
2019-04-05T19:22:57.895Z,99637.73
2019-04-05T19:25:27.381Z,99638.28
2019-04-05T19:27:56.957Z,99628.09
2019-04-05T19:50:36.915Z,99629.95
2019-04-05T19:53:06.383Z,99635.45
2019-04-05T19:55:36.499Z,99630.17
2019-04-05T19:58:06.264Z,99635.31
2019-04-05T20:00:35.814Z,99627.64
2019-04-05T20:03:05.673Z,99629.02
2019-04-05T20:05:35.135Z,99630.40
2019-04-05T20:08:04.715Z,99621.55
2019-04-05T20:10:34.214Z,99628.09
2019-04-05T20:13:03.789Z,99631.41
2019-04-05T20:15:33.265Z,99623.97
2019-04-05T20:18:02.839Z,99620.98
2019-04-05T20:20:32.309Z,99626.27
2019-04-05T20:23:01.922Z,99624.89
2019-04-05T20:25:31.402Z,99626.05
2019-04-05T20:28:00.915Z,99625.23
2019-04-05T20:30:30.504Z,99624.67
2019-04-05T20:33:00.228Z,99625.23
2019-04-05T20:35:29.819Z,99623.07
2019-04-05T20:37:59.367Z,99623.07
2019-04-05T20:40:28.873Z,99618.94
2019-04-05T20:42:59.941Z,99623.30
2019-04-05T20:45:29.612Z,99618.94
2019-04-05T20:47:59.099Z,99625.60
2019-04-05T20:50:28.639Z,99617.12
2019-04-05T20:52:58.094Z,99619.65
2019-04-05T20:55:27.586Z,99621.02
2019-04-05T20:57:57.088Z,99618.50
2019-04-05T21:00:26.564Z,99625.16
2019-04-05T21:02:56.087Z,99624.00
2019-04-05T21:05:25.874Z,99624.23
2019-04-05T21:07:55.428Z,99620.09
2019-04-05T21:10:24.893Z,99617.56
2019-04-05T21:12:54.409Z,99617.56
2019-04-05T21:15:23.923Z,99617.78
2019-04-05T21:17:53.493Z,99612.50
2019-04-05T21:20:22.980Z,99608.38
2019-04-05T21:22:52.461Z,99608.38
2019-04-05T21:25:21.956Z,99606.78
2019-04-05T21:27:51.433Z,99611.13
2019-04-05T21:30:21.079Z,99607.93
2019-04-05T21:32:50.543Z,99611.47
2019-04-05T21:35:20.067Z,99604.95
2019-04-05T21:37:49.542Z,99607.70
2019-04-05T21:40:19.125Z,99611.39
2019-04-05T21:42:48.626Z,99608.05
2019-04-05T21:45:18.198Z,99600.94
2019-04-05T21:47:47.761Z,99597.97
2019-04-05T21:50:17.328Z,99607.04
2019-04-05T21:52:46.817Z,99604.28
2019-04-05T21:55:16.295Z,99604.03
2019-04-05T21:57:45.790Z,99607.16
2019-04-05T22:00:25.824Z,99603.59
2019-04-05T22:02:55.468Z,99603.14
2019-04-05T22:05:24.995Z,99596.97
2019-04-05T22:07:54.529Z,99598.01
2019-04-05T22:10:24.026Z,99602.47
2019-04-05T22:12:53.515Z,99607.75
2019-04-05T22:15:22.992Z,99607.91
2019-04-05T22:17:52.501Z,99604.92
2019-04-05T22:20:21.962Z,99601.13
2019-04-05T22:22:51.454Z,99604.48
2019-04-05T22:25:20.912Z,99605.04
2019-04-05T22:27:52.057Z,99607.80
2019-04-05T22:30:21.560Z,99609.39
2019-04-05T22:32:51.023Z,99605.27
2019-04-05T22:35:20.508Z,99605.27
2019-04-05T22:37:50.008Z,99601.36
2019-04-05T22:40:19.464Z,99602.73
2019-04-05T22:42:48.955Z,99605.70
2019-04-05T22:45:18.537Z,99602.95
2019-04-05T22:47:48.021Z,99602.95
2019-04-05T22:50:17.571Z,99595.86
2019-04-05T22:52:47.050Z,99595.07
2019-04-05T22:55:16.524Z,99587.59
2019-04-05T22:57:46.023Z,99583.25
2019-04-05T23:00:17.418Z,99586.22
2019-04-05T23:02:46.895Z,99592.31
2019-04-05T23:05:16.350Z,99579.56
2019-04-05T23:07:45.870Z,99578.63
2019-04-05T23:10:17.215Z,99579.78
2019-04-05T23:12:46.716Z,99586.11
2019-04-05T23:15:16.318Z,99586.11
2019-04-05T23:17:45.816Z,99583.69
2019-04-05T23:20:15.627Z,99583.47
2019-04-05T23:22:45.179Z,99576.14
2019-04-05T23:25:21.745Z,99589.34
2019-04-05T23:27:45.898Z,99590.27
2019-04-05T23:30:18.131Z,99590.50
2019-04-05T23:32:47.633Z,99588.90
2019-04-05T23:35:17.105Z,99588.30
2019-04-05T23:37:46.630Z,99583.95
2019-04-05T23:40:16.211Z,99582.24
2019-04-05T23:42:45.781Z,99588.75
2019-04-05T23:45:15.429Z,99583.69
2019-04-05T23:47:44.894Z,99585.30
2019-04-05T23:50:14.534Z,99592.84
2019-04-05T23:52:43.998Z,99587.34
2019-04-05T23:55:13.648Z,99590.31
2019-04-05T23:57:43.137Z,99589.38
